createdAt,value
2018-08-18T00:00:51.574Z,97322
2018-08-18T00:02:07.452Z,97322
2018-08-18T00:03:23.356Z,97324
2018-08-18T00:04:39.272Z,97321
2018-08-18T00:05:55.198Z,97324
2018-08-18T00:07:11.113Z,97324
2018-08-18T00:08:26.999Z,97321
2018-08-18T00:09:42.873Z,97325
2018-08-18T00:10:58.820Z,97322
2018-08-18T00:12:14.728Z,97327
2018-08-18T00:13:30.637Z,97324
2018-08-18T00:14:46.543Z,97326
2018-08-18T00:16:02.522Z,97324
2018-08-18T00:17:18.433Z,97327
2018-08-18T00:18:34.327Z,97328
2018-08-18T00:19:50.217Z,97331
2018-08-18T00:21:06.180Z,97334
2018-08-18T00:22:22.083Z,97334
2018-08-18T00:23:37.989Z,97335
2018-08-18T00:24:53.841Z,97336
2018-08-18T00:26:09.779Z,97333
2018-08-18T00:27:25.701Z,97332
2018-08-18T00:28:41.630Z,97329
2018-08-18T00:29:57.512Z,97328
2018-08-18T00:31:13.546Z,97331
2018-08-18T00:32:29.437Z,97322
2018-08-18T00:33:45.361Z,97323
2018-08-18T00:35:01.259Z,97318
2018-08-18T00:36:17.208Z,97316
2018-08-18T00:37:33.207Z,97315
2018-08-18T00:38:49.105Z,97317
2018-08-18T00:40:05.016Z,97314
2018-08-18T00:41:20.923Z,97314
2018-08-18T00:42:36.814Z,97311
2018-08-18T00:43:52.704Z,97312
2018-08-18T00:45:09.333Z,97309
2018-08-18T00:46:25.225Z,97308
2018-08-18T00:47:41.279Z,97312
2018-08-18T00:48:57.161Z,97312
2018-08-18T00:50:13.065Z,97311
2018-08-18T00:51:29.008Z,97309
2018-08-18T00:52:44.888Z,97312
2018-08-18T00:54:00.786Z,97312
2018-08-18T00:55:16.705Z,97310
2018-08-18T00:56:32.623Z,97312
2018-08-18T00:57:48.524Z,97312
2018-08-18T00:59:04.394Z,97316
2018-08-18T01:00:20.278Z,97313
2018-08-18T01:01:36.157Z,97314
2018-08-18T01:02:52.034Z,97313
2018-08-18T01:04:07.949Z,97315
2018-08-18T01:05:23.879Z,97312
2018-08-18T01:06:39.808Z,97313
2018-08-18T01:07:55.693Z,97317
2018-08-18T01:09:11.613Z,97315
2018-08-18T01:10:27.717Z,97316
2018-08-18T01:11:43.803Z,97319
2018-08-18T01:12:59.722Z,97318
2018-08-18T01:14:15.661Z,97313
2018-08-18T01:15:31.444Z,97317
2018-08-18T01:16:47.334Z,97324
2018-08-18T01:18:03.244Z,97323
2018-08-18T01:19:19.139Z,97322
2018-08-18T01:20:35.073Z,97325
2018-08-18T01:21:50.959Z,97318
2018-08-18T01:23:06.862Z,97324
2018-08-18T01:24:22.773Z,97325
2018-08-18T01:25:38.712Z,97323
2018-08-18T01:26:54.647Z,97331
2018-08-18T01:28:10.538Z,97328
2018-08-18T01:29:26.397Z,97326
2018-08-18T01:30:42.301Z,97329
2018-08-18T01:31:58.265Z,97327
2018-08-18T01:33:14.175Z,97326
2018-08-18T01:34:30.082Z,97326
2018-08-18T01:35:45.951Z,97326
2018-08-18T01:37:01.820Z,97324
2018-08-18T01:38:17.777Z,97323
2018-08-18T01:41:14.214Z,97325
2018-08-18T01:42:30.092Z,97321
2018-08-18T01:43:46.093Z,97321
2018-08-18T01:45:01.956Z,97326
2018-08-18T01:46:19.803Z,97326
2018-08-18T01:47:35.684Z,97326
2018-08-18T01:48:51.634Z,97326
2018-08-18T01:50:07.591Z,97329
2018-08-18T01:51:23.491Z,97331
2018-08-18T01:52:39.471Z,97329
2018-08-18T01:53:55.381Z,97328
2018-08-18T01:55:11.299Z,97328
2018-08-18T01:56:27.169Z,97329
2018-08-18T01:57:43.068Z,97332
2018-08-18T01:58:58.965Z,97333
2018-08-18T02:00:14.897Z,97338
2018-08-18T02:01:30.763Z,97333
2018-08-18T02:02:46.648Z,97338
2018-08-18T02:04:03.535Z,97339
2018-08-18T02:05:19.490Z,97338
2018-08-18T02:06:35.384Z,97336
2018-08-18T02:07:51.271Z,97334
2018-08-18T02:09:07.189Z,97336
2018-08-18T02:10:23.139Z,97339
2018-08-18T02:11:39.116Z,97336
2018-08-18T02:12:55.005Z,97344
2018-08-18T02:14:10.873Z,97340
2018-08-18T02:15:26.804Z,97340
2018-08-18T02:16:42.734Z,97339
2018-08-18T02:17:58.649Z,97342
2018-08-18T02:19:14.532Z,97341
2018-08-18T02:20:30.482Z,97341
2018-08-18T02:21:46.417Z,97345
2018-08-18T02:23:02.393Z,97340
2018-08-18T02:24:18.309Z,97343
2018-08-18T02:25:34.244Z,97342
2018-08-18T02:26:50.168Z,97335
2018-08-18T02:28:06.139Z,97342
2018-08-18T02:29:22.049Z,97339
2018-08-18T02:30:38.009Z,97341
2018-08-18T02:31:53.885Z,97338
2018-08-18T02:33:09.799Z,97340
2018-08-18T02:34:25.680Z,97338
2018-08-18T02:35:41.618Z,97335
2018-08-18T02:36:57.504Z,97334
2018-08-18T02:38:13.603Z,97334
2018-08-18T02:39:29.573Z,97332
2018-08-18T02:40:45.485Z,97336
2018-08-18T02:42:01.376Z,97330
2018-08-18T02:44:58.095Z,97332
2018-08-18T02:46:13.991Z,97334
2018-08-18T02:47:29.899Z,97334
2018-08-18T02:48:45.841Z,97336
2018-08-18T02:50:01.825Z,97339
2018-08-18T02:51:17.741Z,97336
2018-08-18T02:54:14.529Z,97337
2018-08-18T02:55:30.475Z,97335
2018-08-18T02:56:46.374Z,97333
2018-08-18T02:58:02.365Z,97336
2018-08-18T02:59:18.298Z,97333
2018-08-18T03:00:34.407Z,97332
2018-08-18T03:01:50.297Z,97331
2018-08-18T03:03:06.207Z,97337
2018-08-18T03:04:22.170Z,97334
2018-08-18T03:05:38.053Z,97338
2018-08-18T03:06:53.962Z,97337
2018-08-18T03:08:09.867Z,97335
2018-08-18T03:09:25.886Z,97338
2018-08-18T03:10:41.885Z,97339
2018-08-18T03:11:57.770Z,97336
2018-08-18T03:13:13.797Z,97334
2018-08-18T03:14:29.691Z,97331
2018-08-18T03:15:45.630Z,97328
2018-08-18T03:17:01.523Z,97334
2018-08-18T03:18:17.450Z,97332
2018-08-18T03:19:33.352Z,97334
2018-08-18T03:20:49.276Z,97333
2018-08-18T03:22:05.196Z,97329
2018-08-18T03:23:21.077Z,97331
2018-08-18T03:24:37.006Z,97330
2018-08-18T03:25:52.907Z,97338
2018-08-18T03:27:08.834Z,97337
2018-08-18T03:28:24.789Z,97336
2018-08-18T03:29:40.694Z,97339
2018-08-18T03:30:56.724Z,97342
2018-08-18T03:32:12.609Z,97345
2018-08-18T03:33:28.490Z,97348
2018-08-18T03:34:44.430Z,97349
2018-08-18T03:36:00.324Z,97352
2018-08-18T03:37:17.094Z,97349
2018-08-18T03:38:32.985Z,97350
2018-08-18T03:39:48.929Z,97350
2018-08-18T03:41:04.863Z,97350
2018-08-18T03:42:20.768Z,97349
2018-08-18T03:43:36.666Z,97350
2018-08-18T03:44:52.562Z,97349
2018-08-18T03:46:08.485Z,97351
2018-08-18T03:47:24.428Z,97350
2018-08-18T03:48:40.324Z,97353
2018-08-18T08:23:59.812Z,97463
2018-08-18T08:25:15.738Z,97461
2018-08-18T08:26:31.640Z,97464
2018-08-18T08:27:47.529Z,97464
2018-08-18T08:29:03.480Z,97464
2018-08-18T08:30:19.482Z,97469
2018-08-18T08:31:35.464Z,97465
2018-08-18T08:32:51.417Z,97465
2018-08-18T08:34:07.381Z,97461
2018-08-18T08:35:23.324Z,97463
2018-08-18T08:36:39.823Z,97458
2018-08-18T08:37:55.813Z,97465
2018-08-18T08:39:11.792Z,97460
2018-08-18T08:40:27.836Z,97461
2018-08-18T08:41:43.782Z,97461
2018-08-18T08:43:00.666Z,97461
2018-08-18T08:44:16.797Z,97459
2018-08-18T08:45:32.748Z,97461
2018-08-18T08:46:48.680Z,97464
2018-08-18T08:48:04.763Z,97465
2018-08-18T08:49:21.315Z,97463
2018-08-18T08:50:37.341Z,97466
2018-08-18T08:51:53.339Z,97463
2018-08-18T08:53:09.516Z,97465
2018-08-18T08:54:25.477Z,97463
2018-08-18T08:55:41.443Z,97464
2018-08-18T08:56:57.431Z,97463
2018-08-18T08:58:13.488Z,97461
2018-08-18T08:59:29.458Z,97457
2018-08-18T09:00:46.440Z,97466
2018-08-18T09:02:02.391Z,97462
2018-08-18T09:03:18.423Z,97456
2018-08-18T09:04:34.352Z,97460
2018-08-18T09:05:50.390Z,97454
2018-08-18T09:07:06.937Z,97455
2018-08-18T09:08:22.882Z,97447
2018-08-18T09:09:38.842Z,97448
2018-08-18T09:10:54.763Z,97447
2018-08-18T09:12:10.731Z,97451
2018-08-18T09:13:26.677Z,97447
2018-08-18T09:14:42.720Z,97444
2018-08-18T09:15:58.738Z,97441
2018-08-18T09:17:14.708Z,97442
2018-08-18T09:18:30.676Z,97448
2018-08-18T09:19:46.662Z,97448
2018-08-18T09:21:02.617Z,97449
2018-08-18T09:22:18.606Z,97448
2018-08-18T09:23:35.109Z,97444
2018-08-18T09:24:51.056Z,97445
2018-08-18T09:26:07.043Z,97445
2018-08-18T09:27:22.969Z,97448
2018-08-18T09:28:40.700Z,97449
2018-08-18T09:29:57.476Z,97449
2018-08-18T09:31:14.208Z,97448
2018-08-18T09:32:30.729Z,97443
2018-08-18T09:33:46.723Z,97447
2018-08-18T09:35:02.626Z,97441
2018-08-18T09:36:18.618Z,97445
2018-08-18T09:37:34.564Z,97441
2018-08-18T09:38:50.510Z,97441
2018-08-18T09:40:06.501Z,97442
2018-08-18T09:41:22.462Z,97439
2018-08-18T09:42:38.381Z,97441
2018-08-18T09:43:54.353Z,97442
2018-08-18T09:45:10.749Z,97440
2018-08-18T09:46:27.002Z,97439
2018-08-18T09:47:43.044Z,97437
2018-08-18T09:48:59.373Z,97436
2018-08-18T09:50:15.331Z,97434
2018-08-18T09:51:31.391Z,97439
2018-08-18T09:52:47.682Z,97436
2018-08-18T09:54:03.717Z,97434
2018-08-18T09:55:19.687Z,97434
2018-08-18T09:56:35.730Z,97434
2018-08-18T09:57:51.707Z,97431
2018-08-18T09:59:07.721Z,97431
2018-08-18T10:00:23.792Z,97439
2018-08-18T10:01:39.841Z,97432
2018-08-18T10:02:55.825Z,97433
2018-08-18T10:04:11.954Z,97430
2018-08-18T10:05:27.915Z,97436
2018-08-18T10:06:43.926Z,97428
2018-08-18T10:08:00.012Z,97434
2018-08-18T10:09:15.961Z,97431
2018-08-18T10:10:31.966Z,97427
2018-08-18T10:11:48.461Z,97428
2018-08-18T10:13:05.359Z,97423
2018-08-18T10:14:21.291Z,97425
2018-08-18T10:15:37.199Z,97427
2018-08-18T10:16:53.305Z,97434
2018-08-18T10:18:09.317Z,97429
2018-08-18T10:19:26.234Z,97430
2018-08-18T10:20:42.292Z,97423
2018-08-18T10:21:58.283Z,97429
2018-08-18T10:23:14.262Z,97424
2018-08-18T10:24:30.203Z,97425
2018-08-18T10:25:46.142Z,97424
2018-08-18T10:27:02.225Z,97424
2018-08-18T10:28:18.290Z,97420
2018-08-18T10:29:34.184Z,97425
2018-08-18T10:30:50.133Z,97422
2018-08-18T10:32:06.239Z,97421
2018-08-18T10:33:22.367Z,97425
2018-08-18T10:34:38.149Z,97415
2018-08-18T10:35:54.097Z,97417
2018-08-18T10:37:10.022Z,97419
2018-08-18T10:38:25.947Z,97415
2018-08-18T10:39:41.893Z,97413
2018-08-18T10:40:57.852Z,97413
2018-08-18T10:42:14.038Z,97409
2018-08-18T10:43:29.816Z,97411
2018-08-18T10:44:45.723Z,97414
2018-08-18T10:46:01.606Z,97412
2018-08-18T10:50:14.023Z,97423
2018-08-18T10:51:29.953Z,97414
2018-08-18T10:52:45.900Z,97415
2018-08-18T10:54:01.896Z,97418
2018-08-18T10:55:17.824Z,97412
2018-08-18T10:56:33.789Z,97417
2018-08-18T10:57:49.646Z,97414
2018-08-18T10:59:05.650Z,97416
2018-08-18T11:00:21.594Z,97414
2018-08-18T11:01:38.640Z,97414
2018-08-18T11:02:54.558Z,97416
2018-08-18T11:04:10.505Z,97414
2018-08-18T11:05:26.509Z,97409
2018-08-18T11:06:42.451Z,97416
2018-08-18T11:07:58.361Z,97412
2018-08-18T11:09:14.275Z,97414
2018-08-18T11:10:30.217Z,97417
2018-08-18T11:11:46.205Z,97413
2018-08-18T11:13:02.119Z,97413
2018-08-18T11:14:18.016Z,97419
2018-08-18T11:15:33.979Z,97419
2018-08-18T11:16:50.044Z,97418
2018-08-18T11:18:05.949Z,97414
2018-08-18T11:19:21.878Z,97414
2018-08-18T11:20:37.873Z,97413
2018-08-18T11:21:54.008Z,97417
2018-08-18T11:23:09.950Z,97415
2018-08-18T11:24:25.865Z,97410
2018-08-18T11:25:41.804Z,97416
2018-08-18T11:26:57.701Z,97409
2018-08-18T11:28:13.669Z,97413
2018-08-18T11:29:29.557Z,97408
2018-08-18T11:30:46.508Z,97410
2018-08-18T11:32:03.497Z,97409
2018-08-18T11:33:19.647Z,97411
2018-08-18T11:34:35.632Z,97408
2018-08-18T11:35:51.567Z,97413
2018-08-18T11:37:07.618Z,97408
2018-08-18T11:38:23.572Z,97413
2018-08-18T11:39:39.499Z,97409
2018-08-18T11:40:55.463Z,97403
2018-08-18T11:42:11.442Z,97406
2018-08-18T11:43:27.420Z,97405
2018-08-18T11:44:43.329Z,97400
2018-08-18T11:45:59.263Z,97398
2018-08-18T11:47:15.256Z,97397
2018-08-18T11:48:31.248Z,97397
2018-08-18T11:49:47.185Z,97402
2018-08-18T11:51:03.129Z,97401
2018-08-18T11:52:19.349Z,97401
2018-08-18T11:53:35.317Z,97402
2018-08-18T11:54:51.478Z,97403
2018-08-18T11:56:07.488Z,97394
2018-08-18T11:57:23.491Z,97395
2018-08-18T12:00:20.453Z,97394
2018-08-18T12:01:36.358Z,97385
2018-08-18T12:02:52.323Z,97381
2018-08-18T12:04:08.322Z,97384
2018-08-18T12:05:24.257Z,97382
2018-08-18T12:06:40.241Z,97383
2018-08-18T12:07:56.214Z,97379
2018-08-18T12:09:12.220Z,97378
2018-08-18T12:10:28.408Z,97381
2018-08-18T12:11:44.323Z,97377
2018-08-18T12:13:00.400Z,97381
2018-08-18T12:14:16.346Z,97376
2018-08-18T12:15:33.267Z,97376
2018-08-18T12:16:50.382Z,97369
2018-08-18T12:18:07.496Z,97376
2018-08-18T12:19:24.183Z,97366
2018-08-18T12:20:40.376Z,97367
2018-08-18T12:21:56.382Z,97364
2018-08-18T12:23:12.408Z,97360
2018-08-18T12:24:28.441Z,97360
2018-08-18T12:25:44.498Z,97366
2018-08-18T12:27:00.437Z,97358
2018-08-18T12:28:17.103Z,97363
2018-08-18T12:29:33.451Z,97359
2018-08-18T12:30:49.387Z,97359
2018-08-18T12:32:07.382Z,97359
2018-08-18T12:33:24.180Z,97362
2018-08-18T12:34:40.110Z,97360
2018-08-18T12:35:56.102Z,97359
2018-08-18T12:37:13.108Z,97359
2018-08-18T12:38:29.031Z,97350
2018-08-18T12:39:44.974Z,97361
2018-08-18T12:41:00.924Z,97350
2018-08-18T12:42:16.900Z,97351
2018-08-18T12:43:33.145Z,97349
2018-08-18T12:44:48.993Z,97349
2018-08-18T12:46:04.964Z,97347
2018-08-18T12:47:20.897Z,97343
2018-08-18T12:48:36.803Z,97343
2018-08-18T12:49:52.824Z,97341
2018-08-18T12:51:08.737Z,97342
2018-08-18T12:52:24.723Z,97338
2018-08-18T12:53:40.598Z,97342
2018-08-18T12:54:56.491Z,97336
2018-08-18T12:56:12.467Z,97340
2018-08-18T12:57:28.399Z,97335
2018-08-18T12:58:44.418Z,97340
2018-08-18T13:00:00.202Z,97338
2018-08-18T13:01:16.208Z,97335
2018-08-18T13:02:32.117Z,97327
2018-08-18T13:03:48.045Z,97331
2018-08-18T13:05:04.123Z,97331
2018-08-18T13:06:20.082Z,97333
2018-08-18T13:07:36.728Z,97332
2018-08-18T13:08:52.641Z,97330
2018-08-18T13:10:08.603Z,97329
2018-08-18T13:11:24.616Z,97327
2018-08-18T13:12:41.097Z,97328
2018-08-18T13:13:56.364Z,97321
2018-08-18T13:15:12.303Z,97323
2018-08-18T13:16:28.316Z,97321
2018-08-18T13:17:44.225Z,97320
2018-08-18T13:19:00.146Z,97326
2018-08-18T13:20:16.037Z,97319
2018-08-18T13:21:32.187Z,97322
2018-08-18T13:22:48.217Z,97319
2018-08-18T13:24:04.332Z,97319
2018-08-18T13:25:20.856Z,97319
2018-08-18T13:26:36.821Z,97319
2018-08-18T13:27:52.724Z,97315
2018-08-18T13:29:08.740Z,97320
2018-08-18T13:30:24.653Z,97325
2018-08-18T13:31:40.569Z,97317
2018-08-18T13:32:56.511Z,97322
2018-08-18T13:34:12.618Z,97319
2018-08-18T13:35:28.531Z,97320
2018-08-18T13:36:44.424Z,97314
2018-08-18T13:38:00.369Z,97312
2018-08-18T13:39:16.465Z,97312
2018-08-18T13:40:32.587Z,97310
2018-08-18T13:41:48.471Z,97307
2018-08-18T13:43:04.360Z,97307
2018-08-18T13:44:20.388Z,97305
2018-08-18T13:45:36.347Z,97304
2018-08-18T13:46:52.455Z,97299
2018-08-18T13:48:08.313Z,97299
2018-08-18T13:49:24.257Z,97309
2018-08-18T13:50:40.169Z,97296
2018-08-18T13:51:56.181Z,97295
2018-08-18T13:53:12.177Z,97296
2018-08-18T13:54:28.176Z,97298
2018-08-18T13:55:44.185Z,97295
2018-08-18T13:57:00.144Z,97294
2018-08-18T13:58:16.042Z,97288
2018-08-18T13:59:32.768Z,97294
2018-08-18T14:00:48.639Z,97289
2018-08-18T14:02:04.590Z,97291
2018-08-18T14:03:20.586Z,97293
2018-08-18T14:04:36.528Z,97290
2018-08-18T14:05:52.526Z,97292
2018-08-18T14:07:08.483Z,97288
2018-08-18T14:08:24.393Z,97290
2018-08-18T14:09:40.531Z,97293
2018-08-18T14:10:56.558Z,97287
2018-08-18T14:12:12.460Z,97289
2018-08-18T14:13:28.357Z,97283
2018-08-18T14:14:44.223Z,97279
2018-08-18T14:16:00.160Z,97280
2018-08-18T14:17:16.188Z,97284
2018-08-18T14:18:32.199Z,97277
2018-08-18T14:19:48.250Z,97282
2018-08-18T14:21:04.180Z,97278
2018-08-18T14:22:20.105Z,97279
2018-08-18T14:23:36.777Z,97277
2018-08-18T14:24:52.712Z,97277
2018-08-18T14:26:08.605Z,97274
2018-08-18T14:27:24.547Z,97274
2018-08-18T14:28:40.469Z,97272
2018-08-18T14:29:57.162Z,97278
2018-08-18T14:31:13.041Z,97272
2018-08-18T14:32:29.198Z,97271
2018-08-18T14:33:45.152Z,97278
2018-08-18T14:35:01.253Z,97275
2018-08-18T14:36:17.139Z,97270
2018-08-18T14:37:33.096Z,97272
2018-08-18T14:38:49.094Z,97277
2018-08-18T14:40:05.014Z,97274
2018-08-18T14:41:20.931Z,97274
2018-08-18T14:42:36.868Z,97273
2018-08-18T14:43:52.779Z,97277
2018-08-18T14:45:08.677Z,97279
2018-08-18T14:46:24.686Z,97278
2018-08-18T14:47:40.572Z,97267
2018-08-18T14:48:56.465Z,97268
2018-08-18T14:50:12.407Z,97262
2018-08-18T14:51:28.304Z,97258
2018-08-18T14:52:44.356Z,97259
2018-08-18T14:54:00.410Z,97259
2018-08-18T14:55:16.327Z,97255
2018-08-18T14:56:32.232Z,97252
2018-08-18T14:57:48.175Z,97251
2018-08-18T14:59:04.140Z,97255
2018-08-18T15:00:20.007Z,97249
2018-08-18T15:01:35.921Z,97250
2018-08-18T15:02:51.844Z,97254
2018-08-18T15:04:07.798Z,97255
2018-08-18T15:05:23.681Z,97255
2018-08-18T15:06:39.569Z,97256
2018-08-18T15:07:55.498Z,97261
2018-08-18T15:09:11.423Z,97259
2018-08-18T15:10:27.341Z,97252
2018-08-18T15:11:43.267Z,97254
2018-08-18T15:12:59.153Z,97253
2018-08-18T15:14:15.078Z,97255
2018-08-18T15:15:31.042Z,97256
2018-08-18T15:16:46.985Z,97262
2018-08-18T15:18:02.851Z,97257
2018-08-18T15:19:18.748Z,97252
2018-08-18T15:20:34.680Z,97255
2018-08-18T15:21:50.575Z,97259
2018-08-18T15:23:06.494Z,97252
2018-08-18T15:24:22.434Z,97255
2018-08-18T15:25:38.386Z,97252
2018-08-18T15:26:54.340Z,97253
2018-08-18T15:28:10.283Z,97256
2018-08-18T15:29:26.182Z,97255
2018-08-18T15:30:42.160Z,97250
2018-08-18T15:31:58.196Z,97245
2018-08-18T15:33:14.190Z,97246
2018-08-18T15:34:30.094Z,97245
2018-08-18T15:35:46.012Z,97247
2018-08-18T15:37:01.998Z,97246
2018-08-18T15:38:17.915Z,97246
2018-08-18T15:41:14.360Z,97244
2018-08-18T15:42:30.390Z,97248
2018-08-18T15:43:46.433Z,97243
2018-08-18T15:45:02.392Z,97242
2018-08-18T15:46:18.330Z,97243
2018-08-18T15:47:34.270Z,97240
2018-08-18T15:48:50.302Z,97240
2018-08-18T15:50:06.213Z,97241
2018-08-18T15:51:22.105Z,97238
2018-08-18T15:52:38.041Z,97238
2018-08-18T15:53:53.951Z,97242
2018-08-18T15:55:09.873Z,97240
2018-08-18T15:56:25.798Z,97241
2018-08-18T15:57:41.679Z,97245
2018-08-18T15:58:57.626Z,97242
2018-08-18T16:00:13.516Z,97248
2018-08-18T16:01:29.406Z,97246
2018-08-18T16:02:45.315Z,97244
2018-08-18T16:04:01.195Z,97242
2018-08-18T16:05:17.131Z,97243
2018-08-18T16:06:33.014Z,97243
2018-08-18T16:07:48.912Z,97240
2018-08-18T16:09:04.839Z,97245
2018-08-18T16:10:20.799Z,97246
2018-08-18T16:11:36.733Z,97244
2018-08-18T16:12:52.643Z,97243
2018-08-18T16:14:08.540Z,97242
2018-08-18T16:15:24.541Z,97246
2018-08-18T16:16:40.427Z,97243
2018-08-18T16:17:56.329Z,97243
2018-08-18T16:19:12.266Z,97243
2018-08-18T16:20:28.154Z,97241
2018-08-18T16:21:44.076Z,97240
2018-08-18T16:23:00.004Z,97244
2018-08-18T16:24:15.944Z,97246
2018-08-18T16:25:31.809Z,97240
2018-08-18T16:26:47.735Z,97253
2018-08-18T16:28:03.644Z,97242
2018-08-18T16:29:19.551Z,97244
2018-08-18T16:30:35.488Z,97240
2018-08-18T16:31:51.598Z,97244
2018-08-18T16:33:07.515Z,97244
2018-08-18T16:34:23.453Z,97238
2018-08-18T16:35:39.364Z,97238
2018-08-18T16:36:55.278Z,97238
2018-08-18T16:38:11.203Z,97234
2018-08-18T16:39:27.126Z,97238
2018-08-18T16:40:43.062Z,97243
2018-08-18T16:41:59.011Z,97237
2018-08-18T16:43:14.910Z,97242
2018-08-18T16:44:30.817Z,97244
2018-08-18T16:45:46.729Z,97241
2018-08-18T16:47:02.640Z,97247
2018-08-18T16:48:18.522Z,97245
2018-08-18T16:49:34.481Z,97247
2018-08-18T16:50:50.395Z,97245
2018-08-18T16:52:07.321Z,97249
2018-08-18T16:53:23.271Z,97247
2018-08-18T16:54:39.405Z,97248
2018-08-18T16:55:55.374Z,97251
2018-08-18T16:57:11.380Z,97249
2018-08-18T16:58:27.297Z,97253
2018-08-18T16:59:43.229Z,97253
2018-08-18T17:00:59.203Z,97257
2018-08-18T17:02:15.143Z,97256
2018-08-18T17:03:31.046Z,97262
2018-08-18T17:04:46.952Z,97263
2018-08-18T17:06:02.879Z,97262
2018-08-18T17:07:18.769Z,97264
2018-08-18T17:08:34.668Z,97262
2018-08-18T17:09:50.592Z,97259
2018-08-18T17:11:06.541Z,97265
2018-08-18T17:12:22.485Z,97267
2018-08-18T17:13:38.566Z,97270
2018-08-18T17:14:54.481Z,97276
2018-08-18T17:16:10.377Z,97281
2018-08-18T17:17:26.438Z,97277
2018-08-18T17:18:42.462Z,97281
2018-08-18T17:19:58.371Z,97274
2018-08-18T17:21:14.301Z,97280
2018-08-18T17:22:30.276Z,97286
2018-08-18T17:23:46.245Z,97284
2018-08-18T17:25:02.165Z,97283
2018-08-18T17:26:18.077Z,97280
2018-08-18T17:27:34.007Z,97283
2018-08-18T17:28:49.951Z,97280
2018-08-18T17:30:05.951Z,97284
2018-08-18T17:31:21.820Z,97283
2018-08-18T17:32:37.744Z,97287
2018-08-18T17:33:53.644Z,97284
2018-08-18T17:35:09.655Z,97285
2018-08-18T17:36:25.533Z,97288
2018-08-18T17:37:41.478Z,97292
2018-08-18T17:38:57.403Z,97292
2018-08-18T17:40:13.337Z,97296
2018-08-18T17:41:29.277Z,97299
2018-08-18T17:42:45.210Z,97296
2018-08-18T17:44:01.137Z,97293
2018-08-18T17:45:17.084Z,97293
2018-08-18T17:46:32.974Z,97298
2018-08-18T17:47:48.878Z,97304
2018-08-18T17:49:04.763Z,97304
2018-08-18T17:50:20.800Z,97300
2018-08-18T17:51:36.725Z,97304
2018-08-18T17:52:52.642Z,97311
2018-08-18T17:54:08.573Z,97307
2018-08-18T17:55:24.547Z,97308
2018-08-18T17:56:41.149Z,97308
2018-08-18T17:57:57.043Z,97307
2018-08-18T17:59:12.937Z,97314
2018-08-18T18:00:28.961Z,97313
2018-08-18T18:01:44.874Z,97318
2018-08-18T18:03:00.776Z,97321
2018-08-18T18:04:16.705Z,97320
2018-08-18T18:05:32.616Z,97320
2018-08-18T18:06:48.499Z,97326
2018-08-18T18:08:04.423Z,97327
2018-08-18T18:09:20.363Z,97325
2018-08-18T18:10:36.483Z,97324
2018-08-18T18:11:52.416Z,97323
2018-08-18T18:13:08.308Z,97318
2018-08-18T18:14:24.213Z,97323
2018-08-18T18:15:40.099Z,97322
2018-08-18T18:16:56.149Z,97326
2018-08-18T18:18:12.098Z,97325
2018-08-18T18:19:28.137Z,97330
2018-08-18T18:20:44.265Z,97328
2018-08-18T18:22:00.384Z,97327
2018-08-18T18:23:16.308Z,97327
2018-08-18T18:24:32.337Z,97325
2018-08-18T18:25:48.142Z,97334
2018-08-18T18:27:04.029Z,97335
2018-08-18T18:28:20.014Z,97334
2018-08-18T18:29:35.931Z,97331
2018-08-18T18:30:51.875Z,97335
2018-08-18T18:32:08.012Z,97335
2018-08-18T18:33:23.912Z,97334
2018-08-18T18:34:40.597Z,97330
2018-08-18T18:35:56.494Z,97332
2018-08-18T18:37:12.410Z,97330
2018-08-18T18:38:28.335Z,97332
2018-08-18T18:39:44.330Z,97333
2018-08-18T18:41:00.254Z,97334
2018-08-18T18:42:16.229Z,97329
2018-08-18T18:43:32.354Z,97333
2018-08-18T18:44:48.282Z,97337
2018-08-18T18:46:04.249Z,97332
2018-08-18T18:47:20.108Z,97335
2018-08-18T18:48:36.755Z,97338
2018-08-18T18:49:52.667Z,97338
2018-08-18T18:51:08.647Z,97339
2018-08-18T18:52:24.630Z,97343
2018-08-18T18:53:40.553Z,97347
2018-08-18T18:54:56.475Z,97347
2018-08-18T18:56:12.415Z,97350
2018-08-18T18:57:28.335Z,97356
2018-08-18T18:58:44.531Z,97358
2018-08-18T19:00:00.509Z,97364
2018-08-18T19:01:16.527Z,97366
2018-08-18T19:02:32.325Z,97368
2018-08-18T19:03:48.285Z,97373
2018-08-18T19:05:04.164Z,97380
2018-08-18T19:06:20.086Z,97381
2018-08-18T19:07:36.017Z,97381
2018-08-18T19:08:52.059Z,97389
2018-08-18T19:10:07.978Z,97393
2018-08-18T19:11:23.931Z,97390
2018-08-18T19:12:39.873Z,97392
2018-08-18T19:13:56.603Z,97393
2018-08-18T19:15:13.467Z,97396
2018-08-18T19:16:29.413Z,97397
2018-08-18T19:17:45.357Z,97404
2018-08-18T19:19:01.273Z,97408
2018-08-18T19:20:18.147Z,97410
2018-08-18T19:21:34.108Z,97409
2018-08-18T19:22:50.034Z,97411
2018-08-18T19:24:05.970Z,97407
2018-08-18T19:25:21.898Z,97413
2018-08-18T19:26:37.855Z,97410
2018-08-18T19:27:54.783Z,97413
2018-08-18T19:29:10.666Z,97411
2018-08-18T19:30:26.624Z,97412
2018-08-18T19:31:42.481Z,97407
2018-08-18T19:32:58.503Z,97414
2018-08-18T19:34:14.446Z,97412
2018-08-18T19:35:30.431Z,97413
2018-08-18T19:36:46.406Z,97414
2018-08-18T19:38:02.372Z,97412
2018-08-18T19:39:18.308Z,97417
2018-08-18T19:40:34.251Z,97412
2018-08-18T19:41:50.113Z,97412
2018-08-18T19:43:06.065Z,97415
2018-08-18T19:44:22.027Z,97413
2018-08-18T19:45:37.917Z,97415
2018-08-18T19:46:53.822Z,97414
2018-08-18T19:48:09.750Z,97416
2018-08-18T19:49:25.735Z,97421
2018-08-18T19:50:41.689Z,97419
2018-08-18T19:51:57.823Z,97421
2018-08-18T19:53:13.737Z,97421
2018-08-18T19:54:29.689Z,97422
2018-08-18T19:55:45.592Z,97422
2018-08-18T19:57:01.489Z,97424
2018-08-18T19:58:17.620Z,97426
2018-08-18T19:59:33.523Z,97429
2018-08-18T20:00:49.501Z,97431
2018-08-18T20:02:05.453Z,97432
2018-08-18T20:03:21.572Z,97429
2018-08-18T20:04:37.569Z,97428
2018-08-18T20:05:53.463Z,97427
2018-08-18T20:08:50.218Z,97436
2018-08-18T20:10:06.128Z,97436
2018-08-18T20:11:22.141Z,97430
2018-08-18T20:12:37.920Z,97434
2018-08-18T20:13:53.852Z,97434
2018-08-18T20:15:09.762Z,97440
2018-08-18T20:16:25.674Z,97436
2018-08-18T20:17:41.612Z,97435
2018-08-18T20:18:57.496Z,97441
2018-08-18T20:20:13.415Z,97440
2018-08-18T20:21:29.428Z,97440
2018-08-18T20:22:46.366Z,97436
2018-08-18T20:24:02.266Z,97439
2018-08-18T20:25:18.188Z,97439
2018-08-18T20:26:34.157Z,97435
2018-08-18T20:27:50.108Z,97432
2018-08-18T20:29:06.071Z,97437
2018-08-18T20:30:21.986Z,97432
2018-08-18T20:31:37.963Z,97437
2018-08-18T20:32:53.864Z,97441
2018-08-18T20:34:09.741Z,97438
2018-08-18T20:35:25.660Z,97440
2018-08-18T20:36:41.583Z,97441
2018-08-18T20:37:57.510Z,97447
2018-08-18T20:39:13.564Z,97449
2018-08-18T20:40:29.478Z,97452
2018-08-18T20:41:45.398Z,97454
2018-08-18T20:43:01.353Z,97452
2018-08-18T20:44:17.260Z,97453
2018-08-18T20:45:33.209Z,97450
2018-08-18T20:46:49.174Z,97449
2018-08-18T20:48:05.093Z,97453
2018-08-18T20:49:21.042Z,97457
2018-08-18T20:50:37.046Z,97457
2018-08-18T20:51:53.005Z,97457
2018-08-18T20:53:08.926Z,97460
2018-08-18T20:54:24.881Z,97456
2018-08-18T20:55:40.789Z,97461
2018-08-18T20:56:56.744Z,97460
2018-08-18T20:58:12.662Z,97457
2018-08-18T20:59:28.596Z,97462
2018-08-18T21:00:44.550Z,97466
2018-08-18T21:02:00.483Z,97461
2018-08-18T21:03:16.432Z,97466
2018-08-18T21:04:32.331Z,97468
2018-08-18T21:05:48.287Z,97469